Time;durP1;ratioP1;P1;durP2;ratioP2;P2;SDS_P1;SDS_P2;PMS_P1;PMS_P2;Temp;Humidity;BMP_temperature;BMP_pressure;BME280_temperature;BME280_humidity;BME280_pressure;Samples;Min_cycle;Max_cycle;Signal;HPM_P1;HPM_P2
2022/07/06 00:00:11;;;;;;;;;1.00;1.00;;;;;18.29;50.72;101828.03;5048969;28;46484;-78
2022/07/06 00:02:36;;;;;;;;;0.50;0.50;;;;;18.33;50.63;101812.78;5067260;27;45400;-80
2022/07/06 00:05:05;;;;;;;;;2.00;1.50;;;;;17.97;50.67;101752.38;5050542;28;45490;-81
2022/07/06 00:07:30;;;;;;;;;2.00;1.00;;;;;17.97;50.55;101751.53;5066780;28;45506;-81
2022/07/06 00:09:58;;;;;;;;;1.50;1.50;;;;;17.93;50.37;101748.94;5065040;28;46061;-80
2022/07/06 00:12:34;;;;;;;;;2.00;2.00;;;;;18.33;51.09;101816.31;5071476;28;45435;-80
2022/07/06 00:15:06;;;;;;;;;0.00;0.00;;;;;17.70;51.37;101722.03;5053355;28;45362;-80
2022/07/06 00:17:37;;;;;;;;;1.00;1.00;;;;;17.98;51.52;101774.69;5066035;28;45587;-79
2022/07/06 00:20:03;;;;;;;;;3.00;0.75;;;;;18.07;51.52;101798.44;5076179;28;45656;-81
2022/07/06 00:22:28;;;;;;;;;1.50;1.50;;;;;17.69;51.34;101736.34;5059397;28;45539;-81
2022/07/06 00:24:54;;;;;;;;;1.00;1.00;;;;;17.63;51.77;101720.47;5074157;27;45521;-81
2022/07/06 00:27:20;;;;;;;;;2.00;2.00;;;;;18.09;51.74;101801.94;5061743;28;45559;-79
2022/07/06 00:29:46;;;;;;;;;2.00;2.00;;;;;17.52;52.03;101713.69;5059543;28;46134;-77
2022/07/06 00:32:14;;;;;;;;;1.00;0.00;;;;;17.13;52.02;101649.84;5061627;28;45429;-78
2022/07/06 00:34:42;;;;;;;;;1.00;1.00;;;;;17.96;52.35;101803.25;5074026;27;45339;-80
2022/07/06 00:37:11;;;;;;;;;1.25;1.25;;;;;17.92;52.69;101806.03;5072677;27;45699;-81
2022/07/06 00:39:43;;;;;;;;;2.25;2.25;;;;;17.47;52.86;101742.31;5066456;28;46333;-79
2022/07/06 00:42:09;;;;;;;;;1.50;1.00;;;;;17.48;53.06;101746.75;5056933;28;45591;-81
2022/07/06 00:44:36;;;;;;;;;2.75;2.75;;;;;17.61;52.83;101778.44;5064742;28;45403;-79
2022/07/06 00:47:02;;;;;;;;;2.00;2.00;;;;;17.83;52.65;101806.28;5075332;27;45224;-78
2022/07/06 00:52:21;;;;;;;;;1.75;1.75;;;;;17.40;53.48;101738.97;5055923;28;45435;-81
2022/07/06 00:54:53;;;;;;;;;5.75;3.50;;;;;17.14;53.58;101707.72;5066095;28;45471;-80
2022/07/06 00:57:18;;;;;;;;;1.75;1.75;;;;;17.41;53.39;101761.22;5072338;28;45558;-79
2022/07/06 00:59:49;;;;;;;;;0.75;0.75;;;;;17.49;53.58;101788.59;5056347;28;46106;-81
2022/07/06 01:02:18;;;;;;;;;2.50;2.50;;;;;17.58;53.97;101819.50;5068722;28;45440;-78
2022/07/06 01:04:46;;;;;;;;;1.00;1.00;;;;;16.82;53.80;101680.09;5061313;28;45501;-79
2022/07/06 01:07:13;;;;;;;;;1.00;1.00;;;;;16.80;53.93;101675.72;5070753;28;45674;-80
2022/07/06 01:09:50;;;;;;;;;1.25;1.25;;;;;17.55;53.98;101804.47;5076547;27;48235;-80
2022/07/06 01:12:18;;;;;;;;;0.75;0.75;;;;;17.15;54.32;101741.47;5057418;28;45495;-79
2022/07/06 01:14:44;;;;;;;;;1.00;1.00;;;;;17.05;54.60;101734.69;5063888;28;45460;-80
2022/07/06 01:17:10;;;;;;;;;2.25;2.25;;;;;17.19;54.64;101763.66;5054416;28;45513;-81
2022/07/06 01:19:36;;;;;;;;;1.75;1.75;;;;;17.05;54.66;101743.56;5064374;28;45676;-79
2022/07/06 01:22:04;;;;;;;;;2.50;1.00;;;;;17.43;54.74;101810.16;5076755;27;45348;-81
2022/07/06 01:24:39;;;;;;;;;2.25;2.00;;;;;17.29;54.79;101797.19;5056533;28;45485;-78
2022/07/06 01:27:13;;;;;;;;;2.00;1.00;;;;;17.13;54.89;101770.03;5074718;27;45642;-80
2022/07/06 01:29:48;;;;;;;;;1.50;1.00;;;;;17.28;54.97;101810.59;5072659;27;46277;-77
2022/07/06 01:32:14;;;;;;;;;1.00;1.00;;;;;16.90;55.00;101735.09;5056718;28;45922;-78
2022/07/06 01:34:40;;;;;;;;;2.00;1.00;;;;;16.92;55.19;101751.97;5065349;28;45315;-78
2022/07/06 01:37:06;;;;;;;;;1.75;1.75;;;;;16.97;55.31;101764.25;5077195;27;45541;-79
2022/07/06 01:39:42;;;;;;;;;2.00;2.00;;;;;17.29;55.12;101812.34;5092408;27;46213;-79
2022/07/06 01:42:13;;;;;;;;;1.00;1.00;;;;;16.97;55.03;101760.72;5079319;27;45478;-79
2022/07/06 01:44:41;;;;;;;;;5.25;2.75;;;;;16.79;54.94;101719.34;5074703;28;45539;-81
2022/07/06 01:47:25;;;;;;;;;;;;;;;;;;;;;
2022/07/06 01:49:54;;;;;;;;;1.50;1.50;;;;;16.50;55.28;101689.91;5076479;28;75343;-78
2022/07/06 01:52:19;;;;;;;;;2.00;1.00;;;;;16.81;55.67;101747.75;5077614;27;45547;-81
2022/07/06 01:54:45;;;;;;;;;3.75;2.00;;;;;17.08;55.81;101804.03;5070432;27;45508;-79
2022/07/06 01:57:13;;;;;;;;;4.00;1.75;;;;;17.16;55.54;101812.69;5060186;28;45550;-80
2022/07/06 01:59:41;;;;;;;;;1.00;1.00;;;;;16.80;55.59;101753.16;5071936;28;45566;-77
2022/07/06 02:02:10;;;;;;;;;2.75;2.00;;;;;16.49;55.79;101690.81;5065392;28;45562;-78
2022/07/06 02:04:39;;;;;;;;;1.25;1.00;;;;;16.98;55.46;101762.47;5054043;28;45633;-80
2022/07/06 02:07:07;;;;;;;;;2.00;2.00;;;;;16.78;55.51;101730.97;5046480;28;45580;-80
2022/07/06 02:09:36;;;;;;;;;1.25;1.25;;;;;17.23;55.52;101808.03;5065097;28;46399;-78
2022/07/06 02:12:09;;;;;;;;;1.00;1.00;;;;;16.90;55.43;101761.78;5077409;28;46070;-79
2022/07/06 02:14:39;;;;;;;;;1.75;1.75;;;;;16.75;55.59;101734.59;5067453;28;45586;-80
2022/07/06 02:17:11;;;;;;;;;2.25;1.25;;;;;17.25;55.31;101808.91;5054672;28;45490;-78
2022/07/06 02:19:39;;;;;;;;;1.00;1.00;;;;;16.54;55.29;101687.13;5061341;28;45439;-78
2022/07/06 02:22:18;;;;;;;;;1.00;1.00;;;;;17.12;55.33;101789.66;5063596;28;45447;-79
2022/07/06 02:24:49;;;;;;;;;3.00;2.00;;;;;16.69;55.49;101718.75;5068106;28;45563;-79
2022/07/06 02:27:15;;;;;;;;;2.00;2.00;;;;;16.45;55.65;101675.78;5074933;28;45550;-77
2022/07/06 02:29:51;;;;;;;;;2.75;2.25;;;;;16.77;55.61;101734.53;5075158;28;46103;-79
2022/07/06 02:32:20;;;;;;;;;1.25;1.25;;;;;16.70;55.68;101725.81;5063660;28;45532;-80
2022/07/06 02:34:45;;;;;;;;;1.00;1.00;;;;;16.54;56.10;101701.34;5054821;28;45529;-80
2022/07/06 02:37:20;;;;;;;;;2.00;2.00;;;;;17.03;55.94;101789.91;5092970;27;45757;-79
2022/07/06 02:39:48;;;;;;;;;4.00;2.00;;;;;16.52;55.56;101714.72;5062845;28;47895;-79
2022/07/06 02:42:16;;;;;;;;;3.00;3.00;;;;;16.58;56.09;101719.03;5052758;28;45422;-81
2022/07/06 02:44:42;;;;;;;;;2.00;2.00;;;;;16.43;56.32;101682.09;5077383;28;45507;-80
2022/07/06 02:47:08;;;;;;;;;3.50;2.50;;;;;16.77;56.11;101734.53;5060369;28;45448;-80
2022/07/06 02:49:33;;;;;;;;;2.75;2.75;;;;;17.08;55.79;101800.47;5062924;28;47326;-79
2022/07/06 02:52:02;;;;;;;;;2.25;2.00;;;;;16.29;55.52;101674.44;5077259;27;45464;-80
2022/07/06 02:54:36;;;;;;;;;5.00;5.00;;;;;17.00;55.84;101801.53;5057844;28;45532;-79
2022/07/06 02:57:02;;;;;;;;;2.00;2.00;;;;;16.52;55.95;101725.41;5058969;28;45575;-81
2022/07/06 02:59:30;;;;;;;;;4.50;2.50;;;;;16.24;56.17;101679.91;5069925;28;45432;-81
2022/07/06 03:01:55;;;;;;;;;2.75;2.75;;;;;17.01;56.25;101811.31;5060245;28;45343;-80
2022/07/06 03:04:30;;;;;;;;;4.00;4.00;;;;;16.72;56.20;101769.38;5070330;28;45547;-80
2022/07/06 03:07:04;;;;;;;;;2.25;1.25;;;;;16.52;56.10;101730.75;5068121;27;45489;-79
2022/07/06 03:09:32;;;;;;;;;3.00;3.00;;;;;16.45;55.97;101720.28;5076248;28;45332;-81
2022/07/06 03:11:58;;;;;;;;;2.00;2.00;;;;;16.23;55.70;101685.28;5062525;27;45751;-78
2022/07/06 03:14:27;;;;;;;;;2.00;2.00;;;;;16.07;55.88;101659.00;5063305;28;45556;-80
2022/07/06 03:16:56;;;;;;;;;1.50;1.50;;;;;16.43;56.30;101714.97;5058340;28;45523;-80
2022/07/06 03:19:22;;;;;;;;;2.75;2.75;;;;;16.39;56.33;101723.97;5066329;27;46464;-78
2022/07/06 03:21:50;;;;;;;;;1.00;1.00;;;;;16.89;56.19;101805.44;5060908;28;45444;-80
2022/07/06 03:24:16;;;;;;;;;3.00;2.25;;;;;16.66;56.43;101772.22;5064839;28;45432;-78
2022/07/06 03:26:43;;;;;;;;;2.25;2.00;;;;;16.59;56.25;101766.13;5060999;27;45529;-80
2022/07/06 03:29:09;;;;;;;;;2.75;2.00;;;;;16.86;56.47;101820.63;5070367;28;45371;-78
2022/07/06 03:31:35;;;;;;;;;2.75;2.75;;;;;16.81;56.80;101817.16;5069341;28;45513;-83
2022/07/06 03:34:14;;;;;;;;;5.00;3.00;;;;;16.81;56.98;101817.16;5065405;28;45568;-79
2022/07/06 03:36:42;;;;;;;;;6.75;4.50;;;;;16.56;56.75;101768.03;5070523;28;45422;-81
2022/07/06 03:39:08;;;;;;;;;3.50;1.75;;;;;16.09;56.51;101689.16;5073405;28;46357;-81
2022/07/06 03:41:34;;;;;;;;;4.00;2.50;;;;;16.30;56.60;101729.53;5064721;28;45402;-81
2022/07/06 03:43:59;;;;;;;;;2.00;2.00;;;;;16.53;56.67;101779.63;5073411;27;45506;-77
2022/07/06 03:46:31;;;;;;;;;7.00;6.25;;;;;16.47;56.62;101758.44;5056979;28;45344;-79
2022/07/06 03:48:57;;;;;;;;;5.25;3.00;;;;;16.32;56.66;101735.72;5062178;28;45492;-81
2022/07/06 03:51:23;;;;;;;;;3.25;2.25;;;;;16.04;56.39;101696.41;5059026;28;45405;-79
2022/07/06 03:53:52;;;;;;;;;6.00;5.75;;;;;16.75;56.60;101814.66;5073461;27;45461;-80
2022/07/06 03:56:29;;;;;;;;;4.00;2.00;;;;;16.13;56.74;101716.66;5075614;27;45454;-79
2022/07/06 03:58:57;;;;;;;;;3.50;2.25;;;;;16.77;56.85;101831.50;5056266;28;46355;-79
2022/07/06 04:01:29;;;;;;;;;1.25;1.25;;;;;16.37;56.78;101760.50;5066488;28;45526;-80
2022/07/06 04:03:58;;;;;;;;;3.00;2.00;;;;;16.02;56.81;101690.25;5065425;28;45416;-79
2022/07/06 04:06:26;;;;;;;;;5.00;5.00;;;;;16.01;56.70;101680.50;5073088;28;45352;-80
2022/07/06 04:08:52;;;;;;;;;3.50;2.75;;;;;16.41;56.61;101754.16;5056841;28;46869;-81
2022/07/06 04:11:17;;;;;;;;;5.00;2.75;;;;;16.35;56.76;101735.63;5068422;28;45567;-81
2022/07/06 04:13:43;;;;;;;;;1.75;1.75;;;;;16.95;56.48;101840.88;5058585;28;45445;-79
2022/07/06 04:16:11;;;;;;;;;3.50;2.25;;;;;16.68;56.52;101789.03;5068427;28;45501;-78
2022/07/06 04:18:37;;;;;;;;;5.00;3.00;;;;;16.21;56.09;101709.31;5061783;28;45399;-80
2022/07/06 04:21:05;;;;;;;;;2.00;1.00;;;;;17.07;56.07;101822.78;5074527;28;45540;-79
2022/07/06 04:23:36;;;;;;;;;5.00;5.00;;;;;16.82;54.95;101701.47;5074690;28;45522;-78
2022/07/06 04:26:02;;;;;;;;;1.75;1.75;;;;;17.92;53.89;101805.16;5039193;28;45420;-80
2022/07/06 04:28:31;;;;;;;;;6.50;2.25;;;;;18.60;52.56;101829.72;5065799;28;45405;-79
2022/07/06 04:30:56;;;;;;;;;4.50;3.00;;;;;18.95;51.42;101808.91;5065865;28;45510;-77
2022/07/06 04:33:25;;;;;;;;;3.00;3.00;;;;;19.45;50.54;101813.31;5055429;28;45437;-80
2022/07/06 04:35:54;;;;;;;;;3.50;2.00;;;;;19.65;48.87;101765.19;5063791;28;45419;-80
2022/07/06 04:38:25;;;;;;;;;2.00;2.00;;;;;19.83;47.99;101709.06;5068703;27;45516;-77
2022/07/06 04:40:50;;;;;;;;;3.75;3.75;;;;;20.73;46.73;101776.00;5086575;28;45386;-78
2022/07/06 04:43:15;;;;;;;;;3.00;3.00;;;;;21.33;45.74;101794.81;5073116;28;45498;-79
2022/07/06 04:45:41;;;;;;;;;3.25;3.25;;;;;21.86;44.69;101789.69;5075918;28;45626;-78
2022/07/06 04:48:08;;;;;;;;;3.00;3.00;;;;;22.27;43.28;101773.31;5055559;28;45494;-79
2022/07/06 04:50:33;;;;;;;;;3.50;3.50;;;;;23.04;42.24;101816.03;5060215;28;45510;-78
2022/07/06 04:52:59;;;;;;;;;0.25;0.25;;;;;23.49;41.55;101811.00;5072992;27;45375;-80
2022/07/06 04:55:24;;;;;;;;;3.00;3.00;;;;;23.75;41.30;101777.16;5065380;27;45324;-79
2022/07/06 04:57:51;;;;;;;;;2.25;1.75;;;;;24.41;40.19;101822.91;5053976;28;46490;-78
2022/07/06 05:00:18;;;;;;;;;2.00;2.00;;;;;24.79;38.82;101811.69;5062675;28;45440;-79
2022/07/06 05:02:43;;;;;;;;;2.50;2.50;;;;;25.30;38.13;101817.56;5067583;27;45576;-81
2022/07/06 05:05:09;;;;;;;;;3.75;3.75;;;;;25.70;37.37;101815.00;5054500;28;45394;-78
2022/07/06 05:07:39;;;;;;;;;2.25;1.50;;;;;26.08;36.87;101801.81;5068513;28;46302;-78
2022/07/06 05:10:06;;;;;;;;;7.00;4.00;;;;;26.41;35.94;101804.09;5068236;28;45601;-79
2022/07/06 05:12:31;;;;;;;;;3.75;3.00;;;;;26.83;34.94;101803.97;5075500;27;45495;-78
2022/07/06 05:14:57;;;;;;;;;2.75;2.75;;;;;27.28;34.89;101796.28;5066278;27;45463;-78
2022/07/06 05:17:22;;;;;;;;;3.00;1.75;;;;;27.62;34.03;101810.19;5070121;28;45311;-78
2022/07/06 05:19:48;;;;;;;;;2.00;2.00;;;;;28.00;33.68;101796.50;5067447;27;45461;-79
2022/07/06 05:22:13;;;;;;;;;4.50;2.75;;;;;28.27;32.56;101781.81;5071705;28;45562;-79
2022/07/06 05:24:39;;;;;;;;;2.75;2.75;;;;;28.78;32.57;101805.09;5074692;28;45410;-78
2022/07/06 05:27:04;;;;;;;;;4.25;2.00;;;;;29.13;31.77;101801.44;5074716;28;45498;-79
2022/07/06 05:29:29;;;;;;;;;3.00;3.00;;;;;29.52;31.18;101806.56;5059506;28;45462;-78
2022/07/06 05:31:55;;;;;;;;;4.25;4.00;;;;;29.80;30.65;101810.59;5071105;28;45351;-78
2022/07/06 05:34:20;;;;;;;;;4.75;4.75;;;;;30.15;30.18;101805.97;5074279;28;45575;-79
2022/07/06 05:36:45;;;;;;;;;4.00;4.00;;;;;30.44;29.77;101803.50;5060887;28;45398;-79
2022/07/06 05:39:11;;;;;;;;;2.00;2.00;;;;;30.67;29.05;101798.78;5052020;28;45349;-78
2022/07/06 05:41:36;;;;;;;;;6.00;4.25;;;;;30.99;28.97;101798.75;5054229;28;45356;-78
2022/07/06 05:44:02;;;;;;;;;4.00;4.00;;;;;31.37;28.37;101799.09;5054177;28;45498;-79
2022/07/06 05:46:28;;;;;;;;;5.50;4.00;;;;;31.66;28.03;101801.94;5055466;28;46771;-78
2022/07/06 05:51:37;;;;;;;;;7.00;7.00;;;;;32.16;27.02;101806.50;5054385;28;45410;-78
2022/07/06 05:54:02;;;;;;;;;3.75;3.75;;;;;32.33;26.70;101810.41;5071058;28;45578;-78
2022/07/06 05:56:28;;;;;;;;;4.00;4.00;;;;;32.56;26.98;101815.56;5069037;27;45489;-79
2022/07/06 05:58:53;;;;;;;;;3.75;3.75;;;;;32.76;26.27;101821.91;5075866;28;45543;-77
2022/07/06 06:01:19;;;;;;;;;4.50;4.50;;;;;33.04;25.94;101824.72;5073599;28;45574;-79
2022/07/06 06:03:44;;;;;;;;;3.75;3.75;;;;;33.14;25.77;101820.06;5077428;28;45521;-80
2022/07/06 06:06:09;;;;;;;;;4.75;3.50;;;;;33.49;25.48;101828.63;5068422;27;46404;-78
2022/07/06 06:08:35;;;;;;;;;4.75;3.50;;;;;33.56;25.24;101819.66;5066137;28;45441;-81
2022/07/06 06:11:00;;;;;;;;;3.50;3.50;;;;;33.71;24.98;101817.25;5076318;28;45595;-80
2022/07/06 06:13:25;;;;;;;;;4.00;4.00;;;;;33.91;25.47;101820.78;5078035;28;45302;-81
2022/07/06 06:15:51;;;;;;;;;6.25;5.25;;;;;34.01;24.28;101812.47;5075109;28;45362;-80
2022/07/06 06:18:19;;;;;;;;;3.50;3.50;;;;;34.27;23.70;101822.69;5060576;28;45554;-79
2022/07/06 06:20:45;;;;;;;;;5.50;4.25;;;;;34.40;23.17;101825.91;5084987;27;45417;-81
2022/07/06 06:23:11;;;;;;;;;3.25;3.25;;;;;34.53;23.97;101823.63;5077911;27;45510;-81
2022/07/06 06:25:38;;;;;;;;;6.00;5.00;;;;;34.68;23.80;101828.53;5068760;27;45513;-80
2022/07/06 06:28:06;;;;;;;;;5.50;5.50;;;;;35.06;23.77;101820.97;5077584;27;45382;-81
2022/07/06 06:30:32;;;;;;;;;6.75;5.00;;;;;35.19;22.98;101801.28;5077212;27;45503;-81
2022/07/06 06:33:15;;;;;;;;;5.75;5.75;;;;;35.47;22.00;101821.19;5078428;28;45479;-79
2022/07/06 06:35:46;;;;;;;;;4.50;4.50;;;;;35.56;22.16;101813.81;5077305;27;46259;-79
2022/07/06 06:38:13;;;;;;;;;4.25;4.25;;;;;35.64;22.66;101807.50;5063468;28;45359;-79
2022/07/06 06:40:40;;;;;;;;;3.75;3.00;;;;;35.98;22.41;101812.09;5067230;28;45422;-81
2022/07/06 06:43:06;;;;;;;;;5.00;2.50;;;;;36.10;21.78;101813.50;5067841;28;45280;-78
2022/07/06 06:45:31;;;;;;;;;5.00;4.50;;;;;36.26;20.70;101816.31;5080305;27;45513;-81
2022/07/06 06:47:57;;;;;;;;;2.00;2.00;;;;;36.09;19.45;101804.41;5067808;27;45473;-80
2022/07/06 06:50:23;;;;;;;;;1.25;1.25;;;;;36.08;20.12;101810.91;5057118;28;45451;-80
2022/07/06 06:52:50;;;;;;;;;1.00;1.00;;;;;36.12;19.38;101822.44;5057243;28;45391;-81
2022/07/06 06:55:15;;;;;;;;;1.00;1.00;;;;;35.79;19.79;101835.25;5056300;28;46254;-81
2022/07/06 06:57:41;;;;;;;;;1.75;1.00;;;;;35.79;20.22;101844.38;5057418;28;45594;-81
2022/07/06 07:00:07;;;;;;;;;3.00;3.00;;;;;35.82;20.24;101838.53;5057795;28;45379;-81
2022/07/06 07:02:32;;;;;;;;;2.00;2.00;;;;;35.71;20.60;101844.28;5056263;28;45319;-80
2022/07/06 07:04:58;;;;;;;;;1.00;1.00;;;;;35.54;21.23;101826.88;5056580;28;45557;-81
2022/07/06 07:07:23;;;;;;;;;4.00;3.00;;;;;35.68;19.89;101839.13;5068436;28;45418;-81
2022/07/06 07:09:49;;;;;;;;;2.00;1.50;;;;;35.75;19.89;101830.03;5072507;28;45592;-82
2022/07/06 07:12:16;;;;;;;;;2.00;2.00;;;;;35.81;19.91;101842.31;5077516;27;45644;-82
2022/07/06 07:14:42;;;;;;;;;3.00;1.75;;;;;35.92;19.71;101835.63;5077976;28;46158;-80
2022/07/06 07:17:08;;;;;;;;;2.00;2.00;;;;;35.77;20.27;101849.16;5079326;27;45530;-81
2022/07/06 07:19:39;;;;;;;;;1.00;1.00;;;;;35.97;20.42;101818.63;5078783;27;45413;-82
2022/07/06 07:22:05;;;;;;;;;2.25;2.25;;;;;36.22;20.00;101831.38;5072673;27;45561;-79
2022/07/06 07:24:31;;;;;;;;;2.00;2.00;;;;;36.24;19.29;101840.31;5063986;28;45815;-80
2022/07/06 07:26:56;;;;;;;;;2.00;2.00;;;;;36.28;19.58;101830.72;5063608;28;45479;-81
2022/07/06 07:29:21;;;;;;;;;2.00;2.00;;;;;36.43;19.25;101843.81;5066103;28;45543;-80
2022/07/06 07:31:47;;;;;;;;;1.50;1.25;;;;;36.43;19.50;101832.81;5072622;28;45577;-82
2022/07/06 07:34:12;;;;;;;;;2.00;2.00;;;;;36.42;20.46;101817.34;5038206;28;46753;-81
2022/07/06 07:36:38;;;;;;;;;2.75;2.75;;;;;36.82;19.85;101843.13;5064713;27;45558;-82
2022/07/06 07:39:04;;;;;;;;;2.00;2.00;;;;;36.72;19.71;101837.78;5068309;28;45498;-81
2022/07/06 07:41:29;;;;;;;;;5.75;5.00;;;;;36.76;19.26;101841.06;5068227;28;45473;-81
2022/07/06 07:43:54;;;;;;;;;3.00;3.00;;;;;36.81;19.43;101830.44;5074023;27;46406;-80
2022/07/06 07:46:20;;;;;;;;;2.75;2.75;;;;;37.11;18.78;101837.06;5065955;28;45468;-80
2022/07/06 07:48:45;;;;;;;;;2.75;2.75;;;;;37.15;18.89;101832.06;5067847;28;45520;-80
2022/07/06 07:51:10;;;;;;;;;1.00;1.00;;;;;37.14;19.45;101833.97;5073813;27;45601;-79
2022/07/06 07:53:36;;;;;;;;;3.00;3.00;;;;;37.26;20.36;101834.50;5054372;28;46275;-79
2022/07/06 07:56:02;;;;;;;;;4.75;3.25;;;;;37.38;19.22;101834.09;5059647;28;45470;-80
2022/07/06 07:58:27;;;;;;;;;2.50;2.50;;;;;37.57;19.93;101830.91;5064381;27;45503;-79
2022/07/06 08:00:52;;;;;;;;;2.00;2.00;;;;;37.64;19.34;101807.09;5073862;27;45600;-78
2022/07/06 08:03:18;;;;;;;;;4.00;4.00;;;;;37.83;19.98;101825.09;5057807;28;46374;-77
2022/07/06 08:05:43;;;;;;;;;4.00;2.25;;;;;37.92;19.45;101820.41;5062324;28;45452;-78
2022/07/06 08:08:09;;;;;;;;;2.75;2.75;;;;;38.15;19.91;101822.31;5063084;28;45339;-78
2022/07/06 08:10:34;;;;;;;;;3.75;3.00;;;;;37.96;18.32;101816.25;5066384;27;45439;-77
2022/07/06 08:13:00;;;;;;;;;3.00;3.00;;;;;38.12;19.08;101828.22;5062917;27;45484;-78
2022/07/06 08:15:25;;;;;;;;;6.00;4.75;;;;;38.28;18.89;101827.25;5071072;28;45336;-78
2022/07/06 08:17:50;;;;;;;;;3.00;3.00;;;;;38.17;18.42;101823.00;5064801;27;45341;-79
2022/07/06 08:20:16;;;;;;;;;3.75;2.75;;;;;38.08;18.53;101816.66;5068768;28;45352;-79
2022/07/06 08:22:42;;;;;;;;;4.00;4.00;;;;;37.92;18.68;101823.16;5059769;28;46083;-78
2022/07/06 08:25:08;;;;;;;;;3.25;3.25;;;;;37.87;18.62;101825.63;5059325;28;45475;-77
2022/07/06 08:27:33;;;;;;;;;4.25;4.25;;;;;38.02;18.93;101829.31;5050344;28;45647;-78
2022/07/06 08:30:00;;;;;;;;;2.00;2.00;;;;;37.89;19.05;101828.19;5058777;28;46433;-82
2022/07/06 08:32:26;;;;;;;;;5.50;5.50;;;;;37.63;18.97;101835.72;5060816;28;46126;-81
2022/07/06 08:34:52;;;;;;;;;2.00;2.00;;;;;37.38;19.14;101823.91;5065914;28;45621;-81
2022/07/06 08:37:19;;;;;;;;;2.00;2.00;;;;;37.58;19.16;101829.88;5077572;27;45388;-80
2022/07/06 08:39:44;;;;;;;;;2.00;2.00;;;;;37.77;19.92;101823.06;5071396;27;45527;-81
2022/07/06 08:42:12;;;;;;;;;3.00;3.00;;;;;37.78;18.40;101834.97;5071504;28;46340;-82
2022/07/06 08:44:37;;;;;;;;;2.50;2.00;;;;;37.89;19.07;101840.06;5058044;28;45390;-81
2022/07/06 08:47:06;;;;;;;;;2.50;1.75;;;;;37.95;19.59;101838.50;5064678;28;45456;-82
2022/07/06 08:49:33;;;;;;;;;2.25;2.00;;;;;37.74;18.93;101833.63;5068624;27;45720;-82
2022/07/06 08:51:59;;;;;;;;;2.00;2.00;;;;;37.22;19.77;101838.59;5071660;27;45509;-82
2022/07/06 08:54:26;;;;;;;;;3.00;3.00;;;;;37.51;19.48;101834.38;5064791;28;45617;-81
2022/07/06 08:56:52;;;;;;;;;2.25;2.00;;;;;37.50;19.37;101840.94;5060746;28;45606;-81
2022/07/06 08:59:17;;;;;;;;;3.00;3.00;;;;;37.56;19.23;101829.19;5056488;28;45478;-81
2022/07/06 09:01:44;;;;;;;;;2.25;2.25;;;;;37.55;18.76;101832.13;5070694;28;45658;-81
2022/07/06 09:04:12;;;;;;;;;3.50;3.50;;;;;37.54;19.61;101825.75;5064784;28;45454;-81
2022/07/06 09:06:42;;;;;;;;;4.50;4.50;;;;;37.54;18.78;101808.38;5068654;27;45353;-81
2022/07/06 09:09:09;;;;;;;;;2.00;2.00;;;;;37.90;19.21;101811.47;5070006;27;45568;-81
2022/07/06 09:11:35;;;;;;;;;2.00;2.00;;;;;37.90;18.77;101818.88;5056312;28;46156;-82
2022/07/06 09:14:01;;;;;;;;;2.50;2.50;;;;;37.89;18.59;101828.19;5054017;28;45345;-81
2022/07/06 09:16:28;;;;;;;;;2.00;2.00;;;;;38.00;19.36;101825.00;5068013;27;45491;-82
2022/07/06 09:18:54;;;;;;;;;1.25;1.25;;;;;38.02;18.66;101815.53;5064550;28;45357;-81
2022/07/06 09:21:25;;;;;;;;;3.00;3.00;;;;;38.12;18.69;101822.69;5074473;27;46130;-82
2022/07/06 09:23:55;;;;;;;;;1.00;1.00;;;;;37.73;18.63;101787.78;5066837;28;45361;-82
2022/07/06 09:26:21;;;;;;;;;3.00;1.50;;;;;37.76;18.48;101784.66;5066394;28;45752;-82
2022/07/06 09:28:47;;;;;;;;;1.75;1.75;;;;;38.08;19.03;101810.31;5073455;27;45466;-82
2022/07/06 09:31:12;;;;;;;;;1.50;1.50;;;;;38.04;18.26;101802.41;5063488;28;46114;-82
2022/07/06 09:33:38;;;;;;;;;2.25;2.00;;;;;37.64;18.54;101798.84;5057529;28;45537;-82
2022/07/06 09:36:05;;;;;;;;;2.00;2.00;;;;;37.55;19.03;101813.72;5057340;28;45450;-82
2022/07/06 09:38:31;;;;;;;;;1.75;1.75;;;;;37.74;18.41;101803.28;5057566;28;45625;-78
2022/07/06 09:40:57;;;;;;;;;2.50;2.50;;;;;37.62;18.38;101795.38;5057205;28;45469;-79
2022/07/06 09:43:24;;;;;;;;;2.00;1.00;;;;;37.78;19.52;101807.38;5057101;28;45419;-77
2022/07/06 09:45:50;;;;;;;;;2.00;1.00;;;;;37.85;18.54;101794.59;5039198;28;45527;-79
2022/07/06 09:48:24;;;;;;;;;3.25;1.75;;;;;37.97;17.83;101792.28;5073497;28;45364;-77
2022/07/06 09:50:55;;;;;;;;;0.00;0.00;;;;;38.11;17.70;101798.91;5075362;27;45419;-78
2022/07/06 09:53:23;;;;;;;;;1.25;0.00;;;;;37.95;18.10;101797.13;5064388;27;45435;-79
2022/07/06 09:55:51;;;;;;;;;2.50;2.50;;;;;38.14;17.16;101810.44;5076688;27;45590;-78
2022/07/06 09:58:17;;;;;;;;;1.00;1.00;;;;;38.27;18.63;101792.44;5075357;27;45421;-79
2022/07/06 10:00:44;;;;;;;;;1.75;1.75;;;;;38.41;17.89;101810.09;5076154;27;46451;-79
2022/07/06 10:03:11;;;;;;;;;1.00;1.00;;;;;38.49;17.97;101815.53;5056325;28;45395;-77
2022/07/06 10:05:42;;;;;;;;;3.00;2.00;;;;;38.55;17.18;101810.13;5059425;28;45430;-79
2022/07/06 10:08:11;;;;;;;;;1.00;1.00;;;;;38.62;16.96;101807.47;5067481;27;45414;-78
2022/07/06 10:10:39;;;;;;;;;2.00;2.00;;;;;38.30;17.26;101815.00;5067701;27;45731;-78
2022/07/06 10:13:06;;;;;;;;;2.00;0.25;;;;;38.30;17.66;101811.38;5063937;27;45424;-78
2022/07/06 10:15:32;;;;;;;;;2.75;2.75;;;;;38.50;17.58;101793.25;5057566;28;45402;-81
2022/07/06 10:18:01;;;;;;;;;1.00;1.00;;;;;38.41;17.55;101812.84;5059432;28;45702;-82
2022/07/06 10:20:32;;;;;;;;;1.00;1.00;;;;;38.62;17.82;101795.56;5065725;28;46230;-82
2022/07/06 10:23:00;;;;;;;;;2.00;2.00;;;;;38.19;17.38;101785.94;5065402;28;45468;-82
2022/07/06 10:25:26;;;;;;;;;2.00;2.00;;;;;38.07;18.18;101783.75;5071357;28;45391;-82
2022/07/06 10:27:54;;;;;;;;;4.00;1.00;;;;;38.10;18.58;101810.97;5059304;28;45531;-81
2022/07/06 10:30:20;;;;;;;;;2.75;2.00;;;;;37.98;17.91;101794.00;5083054;28;45516;-83
2022/07/06 10:32:48;;;;;;;;;2.00;2.00;;;;;37.57;18.01;101784.06;5085265;27;45521;-82
2022/07/06 10:35:14;;;;;;;;;1.25;1.25;;;;;37.81;18.34;101799.63;5082632;27;45481;-82
2022/07/06 10:37:40;;;;;;;;;2.00;2.00;;;;;37.99;18.39;101776.41;5076378;27;45621;-83
2022/07/06 10:43:00;;;;;;;;;2.50;1.00;;;;;38.46;17.79;101802.09;5065404;28;45493;-82
2022/07/06 10:45:28;;;;;;;;;1.50;1.50;;;;;38.18;17.38;101810.97;5075789;28;45398;-81
2022/07/06 10:48:11;;;;;;;;;1.75;1.75;;;;;38.15;17.26;101800.25;5059306;28;45312;-82
2022/07/06 10:50:40;;;;;;;;;2.00;2.00;;;;;37.78;17.75;101810.13;5058280;28;45495;-83
2022/07/06 10:53:28;;;;;;;;;1.00;1.00;;;;;37.19;18.54;101800.38;5063095;28;45357;-82
2022/07/06 10:55:55;;;;;;;;;1.25;1.00;;;;;36.68;19.45;101805.28;5046558;28;45455;-82
2022/07/06 10:58:41;;;;;;;;;3.00;3.00;;;;;36.41;19.56;101807.34;5059355;28;45375;-82
2022/07/06 11:01:08;;;;;;;;;2.00;2.00;;;;;36.00;20.26;101783.41;5050028;28;47511;-83
2022/07/06 11:03:41;;;;;;;;;3.00;3.00;;;;;35.85;20.23;101780.47;5064048;27;45370;-82
2022/07/06 11:06:16;;;;;;;;;3.25;3.00;;;;;35.69;20.64;101802.38;5058690;28;45398;-81
2022/07/06 11:08:42;;;;;;;;;2.75;1.00;;;;;35.80;20.93;101782.84;5074761;28;45646;-82
2022/07/06 11:11:19;;;;;;;;;2.00;1.75;;;;;36.18;20.28;101779.63;5074219;27;46454;-82
2022/07/06 11:14:03;;;;;;;;;2.75;2.75;;;;;36.27;20.49;101796.03;5051854;28;45353;-81
2022/07/06 11:16:33;;;;;;;;;1.75;1.50;;;;;35.99;20.39;101765.19;5065737;28;45465;-83
2022/07/06 11:19:03;;;;;;;;;1.75;1.75;;;;;36.35;20.21;101786.03;5060545;28;45512;-83
2022/07/06 11:21:35;;;;;;;;;3.50;2.00;;;;;35.74;20.44;101751.38;5069463;27;45635;-82
2022/07/06 11:24:02;;;;;;;;;3.00;3.00;;;;;35.58;21.25;101779.66;5077092;28;45533;-82
2022/07/06 11:26:28;;;;;;;;;4.00;2.25;;;;;35.57;20.53;101766.94;5066398;27;45611;-83
2022/07/06 11:28:53;;;;;;;;;2.50;2.50;;;;;35.87;22.20;101750.06;5056918;28;45573;-82
2022/07/06 11:31:19;;;;;;;;;4.00;2.75;;;;;35.93;20.37;101758.47;5071729;28;45409;-81
2022/07/06 11:33:45;;;;;;;;;5.25;3.50;;;;;35.85;21.30;101730.09;5057374;28;45399;-81
2022/07/06 11:36:22;;;;;;;;;3.00;3.00;;;;;36.33;20.15;101771.59;5056866;28;45379;-82